createdAt,value
2022-11-12T00:00:40.654Z,14.85
2022-11-12T00:03:07.804Z,18.77
2022-11-12T00:05:34.608Z,15.55
2022-11-12T00:08:01.463Z,16.42
2022-11-12T00:10:28.269Z,15.37
2022-11-12T00:12:56.227Z,14.85
2022-11-12T00:15:22.886Z,15.25
2022-11-12T00:17:49.569Z,18.63
2022-11-12T00:20:16.327Z,18.13
2022-11-12T00:22:42.930Z,16.10
2022-11-12T00:25:09.787Z,15.43
2022-11-12T00:27:36.884Z,19.50
2022-11-12T00:30:06.324Z,17.35
2022-11-12T00:32:35.921Z,15.70
2022-11-12T00:35:03.011Z,17.83
2022-11-12T00:37:29.709Z,14.98
2022-11-12T00:39:56.391Z,17.30
2022-11-12T00:42:23.004Z,16.60
2022-11-12T00:44:49.667Z,15.63
2022-11-12T00:47:17.650Z,14.70
2022-11-12T00:49:44.473Z,14.82
2022-11-12T00:52:11.286Z,13.98
2022-11-12T00:54:37.904Z,17.98
2022-11-12T00:57:04.607Z,16.08
2022-11-12T00:59:31.291Z,14.63
2022-11-12T01:01:57.921Z,17.67
2022-11-12T01:04:25.975Z,14.00
2022-11-12T01:06:52.739Z,17.95
2022-11-12T01:09:19.459Z,17.63
2022-11-12T01:11:46.130Z,17.80
2022-11-12T01:14:12.900Z,15.32
2022-11-12T01:16:40.405Z,16.23
2022-11-12T01:19:09.008Z,14.30
2022-11-12T01:21:41.039Z,15.70
2022-11-12T01:24:08.562Z,13.70
2022-11-12T01:26:35.527Z,17.67
2022-11-12T01:29:02.161Z,16.08
2022-11-12T01:31:31.488Z,16.02
2022-11-12T01:34:00.410Z,16.38
2022-11-12T01:36:28.388Z,14.10
2022-11-12T01:38:56.497Z,18.58
2022-11-12T01:41:26.135Z,17.33
2022-11-12T01:44:07.956Z,15.10
2022-11-12T01:46:37.455Z,13.00
2022-11-12T01:49:09.864Z,14.70
2022-11-12T01:51:40.909Z,14.57
2022-11-12T01:54:13.099Z,14.38
2022-11-12T01:56:42.502Z,14.18
2022-11-12T01:59:14.191Z,14.32
2022-11-12T02:01:40.821Z,14.53
2022-11-12T02:04:07.525Z,14.65
2022-11-12T02:06:35.475Z,13.35
2022-11-12T02:09:02.263Z,15.88
2022-11-12T02:11:30.241Z,13.23
2022-11-12T02:13:57.504Z,15.43
2022-11-12T02:16:25.152Z,12.00
2022-11-12T02:18:51.842Z,13.73
2022-11-12T02:21:21.468Z,14.43
2022-11-12T02:23:56.617Z,12.18
2022-11-12T02:26:23.538Z,18.67
2022-11-12T02:28:50.255Z,12.77
2022-11-12T02:31:16.903Z,15.10
2022-11-12T02:33:43.542Z,15.93
2022-11-12T02:36:10.342Z,16.45
2022-11-12T02:38:38.342Z,16.97
2022-11-12T02:41:05.282Z,16.17
2022-11-12T02:43:31.988Z,21.13
2022-11-12T02:45:58.624Z,16.00
2022-11-12T02:48:25.370Z,18.75
2022-11-12T02:50:52.128Z,19.57
2022-11-12T02:53:18.796Z,17.13
2022-11-12T02:55:46.819Z,18.83
2022-11-12T02:58:13.598Z,18.73
2022-11-12T03:00:40.300Z,18.50
2022-11-12T03:03:07.007Z,20.90
2022-11-12T03:05:36.337Z,18.25
2022-11-12T03:08:05.270Z,16.33
2022-11-12T03:10:32.062Z,26.30
2022-11-12T03:13:01.602Z,18.42
2022-11-12T03:15:29.039Z,16.33
2022-11-12T03:17:57.620Z,16.90
2022-11-12T03:20:24.332Z,18.95
2022-11-12T03:22:59.156Z,16.33
2022-11-12T03:25:26.694Z,21.48
2022-11-12T03:27:57.551Z,19.17
2022-11-12T03:30:27.565Z,18.50
2022-11-12T03:32:54.403Z,16.85
2022-11-12T03:35:21.194Z,18.60
2022-11-12T03:37:48.159Z,18.23
2022-11-12T03:40:14.832Z,20.63
2022-11-12T03:42:45.955Z,17.50
2022-11-12T03:45:12.733Z,21.67
2022-11-12T03:47:42.607Z,17.65
2022-11-12T03:50:09.734Z,16.88
2022-11-12T03:52:37.930Z,19.17
2022-11-12T03:55:05.538Z,22.98
2022-11-12T03:57:32.473Z,17.58
2022-11-12T03:59:59.086Z,18.92
2022-11-12T04:02:25.755Z,16.90
2022-11-12T04:04:54.411Z,17.00
2022-11-12T04:07:21.027Z,14.93
2022-11-12T04:09:47.730Z,18.52
2022-11-12T04:12:14.392Z,15.32
2022-11-12T04:14:41.025Z,13.63
2022-11-12T04:17:07.695Z,14.50
2022-11-12T04:19:34.313Z,11.45
2022-11-12T04:22:05.430Z,14.48
2022-11-12T04:24:33.581Z,12.23
2022-11-12T04:27:00.290Z,12.85
2022-11-12T04:29:27.143Z,15.80
2022-11-12T04:31:53.773Z,17.20
2022-11-12T04:34:20.467Z,16.60
2022-11-12T04:36:47.199Z,18.63
2022-11-12T04:39:15.187Z,13.27
2022-11-12T04:41:41.821Z,13.30
2022-11-12T04:44:09.151Z,14.52
2022-11-12T04:46:35.811Z,16.50
2022-11-12T04:49:02.501Z,16.70
2022-11-12T04:51:29.308Z,16.63
2022-11-12T04:53:55.947Z,15.73
2022-11-12T04:56:23.978Z,16.88
2022-11-12T04:58:50.757Z,15.77
2022-11-12T05:01:17.560Z,15.02
2022-11-12T05:03:44.312Z,18.33
2022-11-12T05:06:10.955Z,15.27
2022-11-12T05:08:37.554Z,16.65
2022-11-12T05:11:06.517Z,16.85
2022-11-12T05:13:38.066Z,15.23
2022-11-12T05:16:04.925Z,17.88
2022-11-12T05:18:31.564Z,15.40
2022-11-12T05:20:58.252Z,24.48
2022-11-12T05:23:24.880Z,16.02
2022-11-12T05:25:51.498Z,13.60
2022-11-12T05:28:18.089Z,12.90
2022-11-12T05:30:49.101Z,14.70
2022-11-12T05:33:15.808Z,16.67
2022-11-12T05:35:42.607Z,16.50
2022-11-12T05:38:09.220Z,15.82
2022-11-12T05:40:35.824Z,16.70
2022-11-12T05:43:02.497Z,14.00
2022-11-12T05:45:29.122Z,13.98
2022-11-12T05:47:57.162Z,16.55
2022-11-12T05:50:23.790Z,13.07
2022-11-12T05:52:50.446Z,16.60
2022-11-12T05:55:17.223Z,12.67
2022-11-12T05:57:43.854Z,13.30
2022-11-12T06:00:11.930Z,14.75
2022-11-12T06:02:38.584Z,14.40
2022-11-12T06:05:07.345Z,14.93
2022-11-12T06:07:34.033Z,13.77
2022-11-12T06:10:00.708Z,13.18
2022-11-12T06:12:27.382Z,9.93
2022-11-12T06:14:54.023Z,11.98
2022-11-12T06:17:21.471Z,10.55
2022-11-12T06:19:48.259Z,16.97
2022-11-12T06:22:16.255Z,16.17
2022-11-12T06:24:42.921Z,14.13
2022-11-12T06:27:09.623Z,13.77
2022-11-12T06:29:36.212Z,12.13
2022-11-12T06:32:02.946Z,13.30
2022-11-12T06:34:29.572Z,12.90
2022-11-12T06:36:56.283Z,16.88
2022-11-12T06:39:24.267Z,15.70
2022-11-12T06:41:51.069Z,13.05
2022-11-12T06:44:21.934Z,13.47
2022-11-12T06:46:49.159Z,12.45
2022-11-12T06:49:15.794Z,10.93
2022-11-12T06:51:42.445Z,13.70
2022-11-12T06:54:09.101Z,12.52
2022-11-12T06:56:37.085Z,10.87
2022-11-12T06:59:03.734Z,10.93
2022-11-12T07:01:30.447Z,15.05
2022-11-12T07:03:57.164Z,12.50
2022-11-12T07:06:23.845Z,14.75
2022-11-12T07:08:50.885Z,11.80
2022-11-12T07:11:18.611Z,10.68
2022-11-12T07:13:47.313Z,10.90
2022-11-12T07:16:14.930Z,9.65
2022-11-12T07:18:41.533Z,11.32
2022-11-12T07:21:10.580Z,11.07
2022-11-12T07:23:37.711Z,17.20
2022-11-12T07:26:06.450Z,21.08
2022-11-12T07:28:33.525Z,11.32
2022-11-12T07:31:03.437Z,89.07
2022-11-12T07:33:31.149Z,44.40
2022-11-12T07:35:59.189Z,19.40
2022-11-12T07:38:27.399Z,13.35
2022-11-12T07:40:59.109Z,9.73
2022-11-12T07:43:25.794Z,11.20
2022-11-12T07:45:52.422Z,10.67
2022-11-12T07:48:20.481Z,9.52
2022-11-12T07:50:47.107Z,10.98
2022-11-12T07:53:13.773Z,9.55
2022-11-12T07:55:40.429Z,8.75
2022-11-12T07:58:07.116Z,11.07
2022-11-12T08:00:33.755Z,8.85
2022-11-12T08:03:00.477Z,8.45
2022-11-12T08:05:28.521Z,7.68
2022-11-12T08:07:55.499Z,9.38
2022-11-12T08:10:22.297Z,10.93
2022-11-12T08:12:48.917Z,9.98
2022-11-12T08:15:15.812Z,9.52
2022-11-12T08:17:42.407Z,14.63
2022-11-12T08:20:10.022Z,9.45
2022-11-12T08:22:38.008Z,11.07
2022-11-12T08:25:05.300Z,15.13
2022-11-12T08:27:32.105Z,13.10
2022-11-12T08:29:59.055Z,10.45
2022-11-12T08:32:25.796Z,9.55
2022-11-12T08:34:52.517Z,11.50
2022-11-12T08:37:19.234Z,12.20
2022-11-12T08:39:47.317Z,11.48
2022-11-12T08:42:13.956Z,8.85
2022-11-12T08:44:40.643Z,11.00
2022-11-12T08:47:07.347Z,11.57
2022-11-12T08:49:33.978Z,9.82
2022-11-12T08:52:00.634Z,9.80
2022-11-12T08:54:27.295Z,9.75
2022-11-12T08:56:55.322Z,10.07
2022-11-12T08:59:21.957Z,9.33
2022-11-12T09:01:48.606Z,9.02
2022-11-12T09:04:15.308Z,10.55
2022-11-12T09:06:42.124Z,10.38
2022-11-12T09:09:09.430Z,9.55
2022-11-12T09:11:36.212Z,9.43
2022-11-12T09:14:04.239Z,11.07
2022-11-12T09:16:30.983Z,10.73
2022-11-12T09:18:57.755Z,9.85
2022-11-12T09:21:24.435Z,9.32
2022-11-12T09:23:51.125Z,11.27
2022-11-12T09:26:17.801Z,10.77
2022-11-12T09:28:44.560Z,10.50
2022-11-12T09:31:12.608Z,10.52
2022-11-12T09:33:39.334Z,10.10
2022-11-12T09:36:06.683Z,12.13
2022-11-12T09:38:33.600Z,11.05
2022-11-12T09:41:16.426Z,12.45
2022-11-12T09:43:46.561Z,14.93
2022-11-12T09:46:28.274Z,15.30
2022-11-12T09:49:02.539Z,12.20
2022-11-12T09:51:33.443Z,10.70
2022-11-12T09:54:06.647Z,13.20
2022-11-12T09:56:33.375Z,11.27
2022-11-12T09:59:00.169Z,12.18
2022-11-12T10:01:42.205Z,11.67
2022-11-12T10:04:34.646Z,11.60
2022-11-12T10:07:07.712Z,12.73
2022-11-12T10:09:40.838Z,12.55
2022-11-12T10:12:17.156Z,11.18
2022-11-12T10:15:03.057Z,10.40
2022-11-12T10:17:41.652Z,11.35
2022-11-12T10:20:18.287Z,11.13
2022-11-12T10:23:03.072Z,11.20
2022-11-12T10:25:32.223Z,10.27
2022-11-12T10:28:01.665Z,11.77
2022-11-12T10:30:28.498Z,11.02
2022-11-12T10:32:56.595Z,10.02
2022-11-12T10:35:23.841Z,11.43
2022-11-12T10:37:57.360Z,10.93
2022-11-12T10:40:34.276Z,10.90
2022-11-12T10:43:03.348Z,10.20
2022-11-12T10:45:30.340Z,9.38
2022-11-12T10:47:59.026Z,10.07
2022-11-12T10:50:31.649Z,9.75
2022-11-12T10:53:01.613Z,9.17
2022-11-12T10:55:29.956Z,9.65
2022-11-12T10:58:20.407Z,11.35
2022-11-12T11:00:56.259Z,10.07
2022-11-12T11:03:26.160Z,12.15
2022-11-12T11:05:56.825Z,12.93
2022-11-12T11:08:36.471Z,12.35
2022-11-12T11:11:25.338Z,12.00
2022-11-12T11:13:55.755Z,12.55
2022-11-12T11:16:24.768Z,12.32
2022-11-12T11:18:55.736Z,14.17
2022-11-12T11:21:52.743Z,14.35
2022-11-12T11:24:36.616Z,13.55
2022-11-12T11:27:11.683Z,11.57
2022-11-12T11:29:54.269Z,13.43
2022-11-12T11:32:37.591Z,11.20
2022-11-12T11:35:19.738Z,12.45
2022-11-12T11:37:58.703Z,12.13
2022-11-12T11:40:30.042Z,11.68
2022-11-12T11:43:11.828Z,13.07
2022-11-12T11:45:53.880Z,12.83
2022-11-12T11:48:27.351Z,11.38
2022-11-12T11:51:02.552Z,12.45
2022-11-12T11:53:40.530Z,14.18
2022-11-12T11:56:16.777Z,13.35
2022-11-12T11:59:01.241Z,13.50
2022-11-12T12:01:34.246Z,14.38
2022-11-12T12:04:31.146Z,13.73
2022-11-12T12:07:10.177Z,14.75
2022-11-12T12:09:44.612Z,14.35
2022-11-12T12:12:19.382Z,16.67
2022-11-12T12:14:57.602Z,17.58
2022-11-12T12:17:38.501Z,15.35
2022-11-12T12:20:16.360Z,15.30
2022-11-12T12:22:49.049Z,16.98
2022-11-12T12:25:18.666Z,15.17
2022-11-12T12:27:51.441Z,15.68
2022-11-12T12:30:21.212Z,16.65
2022-11-12T12:32:52.905Z,18.40
2022-11-12T12:35:26.266Z,17.17
2022-11-12T12:38:05.021Z,18.70
2022-11-12T12:40:34.925Z,16.42
2022-11-12T12:43:07.163Z,16.40
2022-11-12T12:45:39.601Z,15.90
2022-11-12T12:48:11.361Z,17.35
2022-11-12T12:50:40.951Z,17.03
2022-11-12T12:53:18.942Z,18.20
2022-11-12T12:55:47.288Z,15.85
2022-11-12T12:58:21.455Z,16.35
2022-11-12T13:00:50.733Z,15.02
2022-11-12T13:03:59.970Z,16.67
2022-11-12T13:06:29.100Z,16.85
2022-11-12T13:09:01.287Z,17.00
2022-11-12T13:11:50.769Z,14.45
2022-11-12T13:14:51.233Z,16.67
2022-11-12T13:17:43.281Z,16.43
2022-11-12T13:20:38.241Z,16.00
2022-11-12T13:23:44.738Z,19.60
2022-11-12T13:26:48.533Z,17.48
2022-11-12T13:29:41.979Z,17.98
2022-11-12T13:32:28.919Z,18.43
2022-11-12T13:35:21.133Z,17.70
2022-11-12T13:37:49.721Z,16.40
2022-11-12T13:40:19.737Z,19.10
2022-11-12T13:42:46.770Z,19.67
2022-11-12T13:45:15.431Z,19.67
2022-11-12T13:47:43.027Z,18.80
2022-11-12T13:50:14.978Z,18.42
2022-11-12T13:52:41.918Z,20.50
2022-11-12T13:55:14.211Z,20.13
2022-11-12T13:57:40.933Z,18.83
2022-11-12T14:00:10.377Z,17.92
2022-11-12T14:02:41.663Z,22.23
2022-11-12T14:05:16.594Z,19.98
2022-11-12T14:07:53.803Z,20.63
2022-11-12T14:10:34.191Z,21.27
2022-11-12T14:13:15.564Z,23.63
2022-11-12T14:16:03.573Z,22.05
2022-11-12T14:18:42.277Z,21.35
2022-11-12T14:21:13.131Z,21.05
2022-11-12T14:23:40.675Z,20.30
2022-11-12T14:26:07.400Z,22.15
2022-11-12T14:28:35.823Z,21.67
2022-11-12T14:31:04.484Z,20.63
2022-11-12T14:33:32.864Z,21.15
2022-11-12T14:36:03.023Z,20.57
2022-11-12T14:38:32.981Z,21.70
2022-11-12T14:41:03.630Z,20.52
2022-11-12T14:43:35.029Z,19.30
2022-11-12T14:46:03.465Z,21.17
2022-11-12T14:48:37.469Z,24.73
2022-11-12T14:51:09.329Z,23.27
2022-11-12T14:53:41.147Z,25.15
2022-11-12T14:56:11.461Z,23.95
2022-11-12T14:58:39.931Z,21.55
2022-11-12T15:01:55.784Z,22.93
2022-11-12T15:04:20.889Z,23.17
2022-11-12T15:06:56.963Z,22.33
2022-11-12T15:09:34.967Z,24.23
2022-11-12T15:12:03.442Z,25.55
2022-11-12T15:14:30.713Z,25.50
2022-11-12T15:16:57.778Z,26.77
2022-11-12T15:19:26.804Z,25.95
2022-11-12T15:21:56.123Z,25.38
2022-11-12T15:24:28.817Z,23.77
2022-11-12T15:26:56.919Z,28.37
2022-11-12T15:29:27.592Z,27.67
2022-11-12T15:31:57.158Z,25.58
2022-11-12T15:34:30.992Z,27.02
2022-11-12T15:36:59.856Z,30.10
2022-11-12T15:39:28.318Z,24.50
2022-11-12T15:42:00.017Z,26.05
2022-11-12T15:44:31.824Z,24.67
2022-11-12T15:46:59.001Z,31.55
2022-11-12T15:49:26.647Z,29.02
2022-11-12T15:51:54.766Z,25.70
2022-11-12T15:54:21.639Z,22.80
2022-11-12T15:56:48.986Z,28.85
2022-11-12T15:59:17.495Z,23.65
2022-11-12T16:01:44.334Z,25.90
2022-11-12T16:04:12.006Z,23.70
2022-11-12T16:06:39.028Z,28.83
2022-11-12T16:09:07.288Z,20.15
2022-11-12T16:11:34.353Z,20.60
2022-11-12T16:14:01.641Z,23.98
2022-11-12T16:16:28.360Z,19.93
2022-11-12T16:18:55.021Z,26.55
2022-11-12T16:21:21.672Z,23.20
2022-11-12T16:23:48.359Z,30.58
2022-11-12T16:26:20.899Z,24.40
2022-11-12T16:28:47.596Z,33.53
2022-11-12T16:31:14.260Z,29.90
2022-11-12T16:33:40.932Z,30.95
2022-11-12T16:36:13.369Z,32.30
2022-11-12T16:38:40.021Z,37.72
2022-11-12T16:41:10.415Z,31.47
2022-11-12T16:43:38.701Z,29.08
2022-11-12T16:46:14.356Z,23.95
2022-11-12T16:48:41.086Z,26.23
2022-11-12T16:51:15.299Z,27.13
2022-11-12T16:53:42.034Z,33.20
2022-11-12T16:56:12.272Z,29.50
2022-11-12T16:58:40.377Z,25.83
2022-11-12T17:01:08.830Z,25.73
2022-11-12T17:03:35.521Z,29.20
2022-11-12T17:06:02.234Z,26.17
2022-11-12T17:08:33.734Z,27.27
2022-11-12T17:11:06.656Z,29.50
2022-11-12T17:13:33.325Z,27.67
2022-11-12T17:16:01.487Z,34.70
2022-11-12T17:18:28.108Z,29.97
2022-11-12T17:20:54.799Z,26.20
2022-11-12T17:23:23.731Z,31.60
2022-11-12T17:25:59.995Z,24.92
2022-11-12T17:28:28.605Z,25.23
2022-11-12T17:31:07.337Z,26.60
2022-11-12T17:33:38.178Z,28.60
2022-11-12T17:36:07.730Z,28.27
2022-11-12T17:38:34.841Z,35.63
2022-11-12T17:41:01.603Z,32.42
2022-11-12T17:43:28.509Z,31.13
2022-11-12T17:45:56.606Z,26.55
2022-11-12T17:48:24.853Z,26.70
2022-11-12T17:50:52.856Z,23.10
2022-11-12T17:53:19.830Z,25.02
2022-11-12T17:55:46.512Z,20.23
2022-11-12T17:58:13.244Z,32.33
2022-11-12T18:00:40.009Z,33.33
2022-11-12T18:03:06.734Z,27.33
2022-11-12T18:05:34.754Z,20.40
2022-11-12T18:08:01.590Z,24.60
2022-11-12T18:10:29.531Z,19.63
2022-11-12T18:12:56.202Z,17.88
2022-11-12T18:15:22.930Z,24.80
2022-11-12T18:17:49.672Z,24.42
2022-11-12T18:20:16.743Z,19.30
2022-11-12T18:22:45.226Z,19.38
2022-11-12T18:25:12.487Z,20.20
2022-11-12T18:27:39.154Z,20.08
2022-11-12T18:30:06.723Z,21.05
2022-11-12T18:32:33.364Z,19.37
2022-11-12T18:34:59.999Z,24.08
2022-11-12T18:37:26.747Z,19.38
2022-11-12T18:39:54.788Z,18.55
2022-11-12T18:42:21.491Z,19.35
2022-11-12T18:44:48.186Z,28.03
2022-11-12T18:47:14.857Z,57.85
2022-11-12T18:49:41.547Z,28.08
2022-11-12T18:52:08.243Z,36.15
2022-11-12T18:54:34.863Z,26.13
2022-11-12T18:57:03.214Z,22.17
2022-11-12T18:59:29.892Z,48.45
2022-11-12T19:01:56.802Z,29.58
2022-11-12T19:04:23.567Z,24.58
2022-11-12T19:06:50.465Z,22.38
2022-11-12T19:09:17.326Z,22.50
2022-11-12T19:11:43.961Z,23.73
2022-11-12T19:14:12.052Z,23.45
2022-11-12T19:16:40.564Z,28.08
2022-11-12T19:19:08.713Z,26.23
2022-11-12T19:21:35.390Z,23.57
2022-11-12T19:24:02.256Z,20.50
2022-11-12T19:26:28.926Z,25.05
2022-11-12T19:28:55.714Z,22.13
2022-11-12T19:31:25.126Z,20.90
2022-11-12T19:33:51.875Z,21.57
2022-11-12T19:36:19.812Z,24.27
2022-11-12T19:38:46.590Z,21.25
2022-11-12T19:41:19.349Z,21.85
2022-11-12T19:43:46.384Z,20.35
2022-11-12T19:46:13.431Z,20.63
2022-11-12T19:48:44.953Z,22.90
2022-11-12T19:51:12.844Z,23.98
2022-11-12T19:53:40.608Z,21.13
2022-11-12T19:56:07.786Z,27.85
2022-11-12T19:58:34.490Z,30.07
2022-11-12T20:01:04.951Z,28.10
2022-11-12T20:03:31.951Z,27.85
2022-11-12T20:06:01.817Z,32.47
2022-11-12T20:08:28.880Z,34.35
2022-11-12T20:10:55.815Z,35.57
2022-11-12T20:13:22.760Z,39.42
2022-11-12T20:15:49.535Z,44.63
2022-11-12T20:18:16.549Z,32.47
2022-11-12T20:20:46.050Z,38.20
2022-11-12T20:23:14.029Z,31.27
2022-11-12T20:25:40.764Z,28.17
2022-11-12T20:28:07.633Z,31.52
2022-11-12T20:30:35.820Z,27.65
2022-11-12T20:33:02.497Z,20.88
2022-11-12T20:35:29.204Z,21.80
2022-11-12T20:37:55.947Z,23.52
2022-11-12T20:40:23.994Z,19.55
2022-11-12T20:42:50.660Z,21.75
2022-11-12T20:45:17.673Z,20.13
2022-11-12T20:47:44.386Z,20.70
2022-11-12T20:50:11.049Z,19.33
2022-11-12T20:52:37.708Z,22.85
2022-11-12T20:55:04.926Z,19.33
2022-11-12T20:57:33.011Z,19.80
2022-11-12T20:59:59.634Z,17.77
2022-11-12T21:02:26.353Z,18.33
2022-11-12T21:04:52.960Z,18.85
2022-11-12T21:07:19.684Z,17.67
2022-11-12T21:09:46.625Z,16.50
2022-11-12T21:12:13.420Z,16.17
2022-11-12T21:14:44.815Z,18.58
2022-11-12T21:17:14.225Z,17.13
2022-11-12T21:19:40.904Z,17.13
2022-11-12T21:22:07.577Z,17.17
2022-11-12T21:24:34.283Z,14.23
2022-11-12T21:27:00.955Z,15.70
2022-11-12T21:29:27.595Z,16.25
2022-11-12T21:31:55.703Z,16.63
2022-11-12T21:34:22.351Z,15.70
2022-11-12T21:36:49.040Z,19.13
2022-11-12T21:39:15.690Z,15.70
2022-11-12T21:41:42.403Z,15.95
2022-11-12T21:44:09.456Z,16.45
2022-11-12T21:46:36.188Z,13.93
2022-11-12T21:49:04.567Z,14.50
2022-11-12T21:51:33.186Z,14.30
2022-11-12T21:54:01.611Z,16.05
2022-11-12T21:56:28.928Z,15.73
2022-11-12T21:58:56.855Z,14.45
2022-11-12T22:01:24.699Z,18.43
2022-11-12T22:03:54.190Z,19.45
2022-11-12T22:06:24.305Z,17.10
2022-11-12T22:08:51.667Z,19.08
2022-11-12T22:11:18.463Z,16.73
2022-11-12T22:13:45.590Z,23.17
2022-11-12T22:16:15.298Z,24.98
2022-11-12T22:18:42.857Z,26.50
2022-11-12T22:21:12.050Z,19.17
2022-11-12T22:23:40.097Z,44.75
2022-11-12T22:26:10.663Z,25.17
2022-11-12T22:28:37.467Z,21.95
2022-11-12T22:31:05.066Z,15.98
2022-11-12T22:33:31.822Z,18.73
2022-11-12T22:36:01.297Z,16.08
2022-11-12T22:38:32.909Z,16.17
2022-11-12T22:41:05.617Z,16.77
2022-11-12T22:43:32.769Z,17.65
2022-11-12T22:46:04.552Z,14.38
2022-11-12T22:48:31.274Z,14.07
2022-11-12T22:50:58.982Z,16.03
2022-11-12T22:53:25.701Z,13.93
2022-11-12T22:55:52.509Z,15.18
2022-11-12T22:58:20.803Z,14.25
2022-11-12T23:00:49.086Z,15.93
2022-11-12T23:03:15.783Z,16.43
2022-11-12T23:05:42.420Z,18.85
2022-11-12T23:08:09.182Z,14.68
2022-11-12T23:10:35.960Z,15.05
2022-11-12T23:13:02.629Z,14.68
2022-11-12T23:15:31.139Z,16.10
2022-11-12T23:17:57.956Z,16.25
2022-11-12T23:20:24.691Z,15.05
2022-11-12T23:22:51.387Z,15.32
2022-11-12T23:25:18.025Z,14.63
2022-11-12T23:27:44.691Z,14.20
2022-11-12T23:30:12.247Z,15.95
2022-11-12T23:32:40.311Z,14.77
2022-11-12T23:35:07.478Z,21.30
2022-11-12T23:37:34.147Z,21.75
2022-11-12T23:40:00.786Z,19.83
2022-11-12T23:42:28.343Z,16.67
2022-11-12T23:44:55.047Z,17.05
2022-11-12T23:47:21.738Z,18.98
2022-11-12T23:49:49.807Z,16.88
2022-11-12T23:52:18.658Z,18.30
2022-11-12T23:54:45.761Z,18.80
2022-11-12T23:57:12.399Z,18.88
2022-11-12T23:59:39.096Z,19.58
